^^
Station Historical Data
Daily Summary for February 19, 2017 Units:  English    Metric   Both
« Previous Day
Next Day »
Daily Weekly Monthly Yearly Custom
  High: Low: Average:
Temperature: 62.5 °F 49.4 °F 54.9 °F
Dew Point: 40.6 °F 31.4 °F 35.9 °F
Humidity: 62% 35% 49%
Wind Speed: 6.0mph 0.0mph 1.3mph
Wind Gust: 12.0mph - -
Wind- - SSW
Pressure: 29.99 in 29.67 in -
Precipitation: 0.00 in    
Historical Graphs
 
 
Tabular Data for February 19, 2017
Time Temperature Dew Point Pressure Wind Wind Speed Wind Gust Humidity Rainfall Rate (Hourly) Conditions
00:09 52.0 °F 34.9 °F 29.68 in SSW 1.0 mph 7.0 mph 52% 0.00 in CLR
00:19 51.9 °F 35.3 °F 29.67 in SSW 2.0 mph 7.0 mph 53% 0.00 in CLR
00:29 51.8 °F 35.2 °F 29.68 in SSW 2.0 mph 6.0 mph 53% 0.00 in CLR
00:49 50.8 °F 34.7 °F 29.68 in South 1.0 mph 5.0 mph 54% 0.00 in CLR
00:59 50.6 °F 35.0 °F 29.68 in Calm   4.0 mph 55% 0.00 in CLR
01:09 50.4 °F 35.3 °F 29.68 in Calm   2.0 mph 56% 0.00 in CLR
01:19 50.1 °F 35.0 °F 29.69 in Calm   1.0 mph 56% 0.00 in CLR
01:39 49.6 °F 35.0 °F 29.70 in SW 1.0 mph 5.0 mph 57% 0.00 in CLR
01:49 51.2 °F 35.1 °F 29.69 in SW 2.0 mph 8.0 mph 54% 0.00 in CLR
01:59 52.0 °F 35.4 °F 29.70 in SSW 2.0 mph 7.0 mph 53% 0.00 in CLR
02:19 50.9 °F 34.8 °F 29.70 in SSW 2.0 mph 7.0 mph 54% 0.00 in CLR
02:29 51.5 °F 34.9 °F 29.70 in SSW 1.0 mph 7.0 mph 53% 0.00 in CLR
02:39 51.3 °F 35.2 °F 29.71 in SSW 1.0 mph 7.0 mph 54% 0.00 in CLR
02:49 50.9 °F 34.8 °F 29.71 in SSW 1.0 mph 4.0 mph 54% 0.00 in CLR
02:59 50.4 °F 34.8 °F 29.71 in SSW 1.0 mph 4.0 mph 55% 0.00 in CLR
03:09 50.3 °F 35.2 °F 29.71 in South 3.0 mph 5.0 mph 56% 0.00 in FEW
03:19 50.2 °F 35.1 °F 29.72 in SSW 1.0 mph 5.0 mph 56% 0.00 in FEW
03:29 50.4 °F 34.8 °F 29.72 in SSW 1.0 mph 4.0 mph 55% 0.00 in FEW
03:39 50.5 °F 34.9 °F 29.73 in SSW 2.0 mph 7.0 mph 55% 0.00 in FEW
03:49 50.4 °F 35.3 °F 29.73 in SSW 1.0 mph 5.0 mph 56% 0.00 in FEW
03:59 50.7 °F 35.6 °F 29.73 in SSW 3.0 mph 5.0 mph 56% 0.00 in FEW
04:09 51.0 °F 35.4 °F 29.73 in SSW 1.0 mph 5.0 mph 55% 0.00 in CLR
04:19 51.0 °F 35.4 °F 29.73 in South 2.0 mph 6.0 mph 55% 0.00 in CLR
04:29 50.9 °F 35.3 °F 29.73 in SSW 2.0 mph 4.0 mph 55% 0.00 in CLR
04:39 50.9 °F 35.3 °F 29.74 in SW 1.0 mph 6.0 mph 55% 0.00 in CLR
04:49 50.8 °F 35.6 °F 29.74 in SSW 1.0 mph 4.0 mph 56% 0.00 in CLR
04:59 50.5 °F 35.4 °F 29.74 in Calm   3.0 mph 56% 0.00 in CLR
05:09 50.2 °F 35.5 °F 29.74 in Calm   4.0 mph 57% 0.00 in CLR
05:19 50.5 °F 35.8 °F 29.75 in SSE 1.0 mph 4.0 mph 57% 0.00 in CLR
05:29 50.5 °F 35.8 °F 29.75 in Calm   2.0 mph 57% 0.00 in CLR
05:39 50.1 °F 35.9 °F 29.75 in Calm   3.0 mph 58% 0.00 in CLR
05:49 49.8 °F 36.0 °F 29.75 in Calm   2.0 mph 59% 0.00 in CLR
05:59 49.6 °F 35.9 °F 29.76 in Calm   1.0 mph 59% 0.00 in CLR
06:09 49.9 °F 36.2 °F 29.76 in Calm   1.0 mph 59% 0.00 in SCT
06:19 49.9 °F 36.6 °F 29.76 in Calm   1.0 mph 60% 0.00 in SCT
06:29 50.0 °F 36.7 °F 29.76 in Calm   1.0 mph 60% 0.00 in SCT
06:39 50.2 °F 37.3 °F 29.76 in Calm     61% 0.00 in SCT
06:49 49.9 °F 37.4 °F 29.76 in Calm     62% 0.00 in SCT
06:59 49.7 °F 37.2 °F 29.77 in Calm     62% 0.00 in SCT
07:09 49.7 °F 37.2 °F 29.77 in Calm   1.0 mph 62% 0.00 in SCT
07:19 49.4 °F 36.9 °F 29.78 in Calm   1.0 mph 62% 0.00 in SCT
07:29 49.5 °F 37.0 °F 29.79 in Calm   3.0 mph 62% 0.00 in SCT
07:39 49.5 °F 37.0 °F 29.79 in South 1.0 mph 3.0 mph 62% 0.00 in SCT
07:49 50.3 °F 37.4 °F 29.80 in SSW 2.0 mph 4.0 mph 61% 0.00 in SCT
07:59 50.9 °F 37.9 °F 29.80 in South 1.0 mph 3.0 mph 61% 0.00 in SCT
08:09 50.9 °F 37.9 °F 29.80 in South 2.0 mph 4.0 mph 61% 0.00 in BKN
08:19 50.0 °F 37.5 °F 29.81 in SSW 1.0 mph 6.0 mph 62% 0.00 in BKN
08:39 51.5 °F 38.5 °F 29.81 in SW 1.0 mph 5.0 mph 61% 0.00 in BKN
08:49 53.1 °F 39.1 °F 29.81 in SSW 1.0 mph 7.0 mph 59% 0.00 in BKN
08:59 54.0 °F 39.5 °F 29.82 in SSW 2.0 mph 5.0 mph 58% 0.00 in BKN
09:09 54.6 °F 39.6 °F 29.82 in SW 2.0 mph 9.0 mph 57% 0.00 in CLR
09:19 55.3 °F 39.9 °F 29.82 in WSW 2.0 mph 9.0 mph 56% 0.00 in CLR
09:29 55.3 °F 39.9 °F 29.82 in WSW 3.0 mph 9.0 mph 56% 0.00 in CLR
09:39 55.3 °F 39.9 °F 29.83 in Calm   8.0 mph 56% 0.00 in CLR
09:49 56.1 °F 40.6 °F 29.83 in Calm   4.0 mph 56% 0.00 in CLR
09:59 56.7 °F 40.2 °F 29.82 in WSW 2.0 mph 7.0 mph 54% 0.00 in CLR
10:09 57.6 °F 40.1 °F 29.82 in West 5.0 mph 9.0 mph 52% 0.00 in CLR
10:19 57.7 °F 39.7 °F 29.82 in WNW 1.0 mph 9.0 mph 51% 0.00 in CLR
10:29 57.9 °F 39.4 °F 29.82 in South 1.0 mph 8.0 mph 50% 0.00 in CLR
10:39 57.6 °F 39.1 °F 29.83 in NNW 2.0 mph 8.0 mph 50% 0.00 in CLR
10:49 57.3 °F 39.3 °F 29.83 in Calm   10.0 mph 51% 0.00 in CLR
10:59 57.4 °F 39.4 °F 29.83 in WNW 1.0 mph 12.0 mph 51% 0.00 in CLR
11:09 57.4 °F 39.4 °F 29.83 in West 2.0 mph 7.0 mph 51% 0.00 in CLR
11:19 57.8 °F 39.7 °F 29.83 in West 1.0 mph 9.0 mph 51% 0.00 in CLR
11:29 58.8 °F 39.6 °F 29.83 in NW 1.0 mph 9.0 mph 49% 0.00 in CLR
11:39 59.1 °F 38.9 °F 29.83 in WNW 2.0 mph 8.0 mph 47% 0.00 in CLR
11:49 59.2 °F 39.0 °F 29.82 in North 2.0 mph 9.0 mph 47% 0.00 in CLR
11:59 59.5 °F 38.7 °F 29.82 in West 2.0 mph 9.0 mph 46% 0.00 in CLR
12:09 60.0 °F 39.2 °F 29.81 in NNW 1.0 mph 8.0 mph 46% 0.00 in CLR
12:19 60.2 °F 38.7 °F 29.81 in West 3.0 mph 5.0 mph 45% 0.00 in CLR
12:29 59.9 °F 38.5 °F 29.81 in WSW 1.0 mph 7.0 mph 45% 0.00 in CLR
12:49 59.2 °F 38.4 °F 29.81 in WSW 1.0 mph 8.0 mph 46% 0.00 in CLR
12:59 58.6 °F 37.9 °F 29.81 in North 2.0 mph 8.0 mph 46% 0.00 in CLR
13:09 59.5 °F 38.7 °F 29.82 in West 1.0 mph 7.0 mph 46% 0.00 in CLR
13:19 60.2 °F 38.7 °F 29.81 in Calm   9.0 mph 45% 0.00 in CLR
13:29 60.1 °F 38.1 °F 29.81 in NW 2.0 mph 8.0 mph 44% 0.00 in CLR
13:39 61.2 °F 38.5 °F 29.81 in WSW 3.0 mph 8.0 mph 43% 0.00 in CLR
13:49 60.9 °F 37.0 °F 29.80 in WNW 2.0 mph 9.0 mph 41% 0.00 in CLR
13:59 61.4 °F 37.5 °F 29.80 in West 1.0 mph 6.0 mph 41% 0.00 in CLR
14:09 61.7 °F 37.1 °F 29.80 in NNW 5.0 mph 12.0 mph 40% 0.00 in CLR
14:19 61.7 °F 37.1 °F 29.80 in WSW 3.0 mph 8.0 mph 40% 0.00 in CLR
14:29 61.2 °F 37.3 °F 29.80 in West 2.0 mph 10.0 mph 41% 0.00 in CLR
14:39 61.5 °F 36.9 °F 29.81 in West 5.0 mph 8.0 mph 40% 0.00 in CLR
14:49 62.0 °F 36.7 °F 29.81 in WSW 6.0 mph 12.0 mph 39% 0.00 in CLR
14:59 61.9 °F 37.3 °F 29.81 in WSW 2.0 mph 10.0 mph 40% 0.00 in CLR
15:09 62.1 °F 37.5 °F 29.82 in SW 2.0 mph 10.0 mph 40% 0.00 in CLR
15:19 62.2 °F 37.6 °F 29.82 in SSE 1.0 mph 7.0 mph 40% 0.00 in CLR
15:29 62.5 °F 37.2 °F 29.82 in SW 1.0 mph 7.0 mph 39% 0.00 in CLR
15:39 62.0 °F 37.4 °F 29.83 in West 2.0 mph 8.0 mph 40% 0.00 in CLR
15:49 62.2 °F 36.9 °F 29.83 in NNW 3.0 mph 8.0 mph 39% 0.00 in CLR
15:59 62.5 °F 35.2 °F 29.83 in SSW 3.0 mph 12.0 mph 36% 0.00 in CLR
16:09 62.2 °F 34.9 °F 29.83 in NNE 2.0 mph 12.0 mph 36% 0.00 in CLR
16:19 62.3 °F 35.0 °F 29.83 in WSW 2.0 mph 8.0 mph 36% 0.00 in CLR
16:29 62.2 °F 34.2 °F 29.84 in SE 2.0 mph 7.0 mph 35% 0.00 in CLR
16:39 62.0 °F 34.0 °F 29.84 in WNW 5.0 mph 10.0 mph 35% 0.00 in CLR
16:49 61.7 °F 33.7 °F 29.85 in East 1.0 mph 8.0 mph 35% 0.00 in CLR
16:59 61.3 °F 33.4 °F 29.85 in ESE 1.0 mph 8.0 mph 35% 0.00 in CLR
17:09 60.7 °F 33.6 °F 29.86 in South 1.0 mph 10.0 mph 36% 0.00 in CLR
17:19 60.1 °F 32.3 °F 29.86 in NNW 3.0 mph 9.0 mph 35% 0.00 in CLR
17:29 59.4 °F 31.7 °F 29.87 in Calm   8.0 mph 35% 0.00 in CLR
17:39 58.6 °F 32.4 °F 29.87 in ENE 2.0 mph 5.0 mph 37% 0.00 in CLR
17:49 57.9 °F 32.4 °F 29.88 in East 1.0 mph 3.0 mph 38% 0.00 in CLR
17:59 57.5 °F 32.1 °F 29.88 in Calm   3.0 mph 38% 0.00 in CLR
18:19 56.6 °F 32.5 °F 29.89 in Calm   1.0 mph 40% 0.00 in CLR
18:29 56.7 °F 32.0 °F 29.89 in Calm   3.0 mph 39% 0.00 in CLR
18:39 57.0 °F 32.3 °F 29.90 in NE 1.0 mph 4.0 mph 39% 0.00 in CLR
18:59 56.2 °F 32.2 °F 29.90 in NNE 1.0 mph 4.0 mph 40% 0.00 in CLR
19:09 56.0 °F 32.0 °F 29.90 in NNE 1.0 mph 4.0 mph 40% 0.00 in CLR
19:19 56.1 °F 32.0 °F 29.91 in North 1.0 mph 4.0 mph 40% 0.00 in CLR
19:29 55.9 °F 31.9 °F 29.91 in Calm   2.0 mph 40% 0.00 in CLR
19:39 55.5 °F 31.6 °F 29.91 in Calm   2.0 mph 40% 0.00 in CLR
19:44 55.4 °F 32.0 °F 29.92 in Calm   2.0 mph 41% 0.00 in CLR
19:59 54.5 °F 31.9 °F 29.93 in Calm   1.0 mph 42% 0.00 in CLR
20:14 54.1 °F 31.5 °F 29.93 in Calm   2.0 mph 42% 0.00 in CLR
20:29 53.8 °F 31.8 °F 29.94 in Calm   2.0 mph 43% 0.00 in CLR
20:44 53.4 °F 31.4 °F 29.95 in Calm   2.0 mph 43% 0.00 in CLR
20:59 53.2 °F 31.8 °F 29.96 in Calm   3.0 mph 44% 0.00 in CLR
21:14 52.4 °F 32.2 °F 29.97 in Calm   2.0 mph 46% 0.00 in CLR
21:29 52.6 °F 32.9 °F 29.97 in NNW 1.0 mph 7.0 mph 47% 0.00 in CLR
21:44 52.0 °F 33.4 °F 29.97 in ENE 1.0 mph 4.0 mph 49% 0.00 in CLR
21:59 52.2 °F 33.6 °F 29.98 in NE 1.0 mph 6.0 mph 49% 0.00 in CLR
22:14 51.9 °F 33.8 °F 29.98 in ENE 1.0 mph 6.0 mph 50% 0.00 in CLR
22:29 51.6 °F 34.0 °F 29.98 in NE 1.0 mph 5.0 mph 51% 0.00 in CLR
22:44 51.4 °F 34.3 °F 29.98 in ENE 1.0 mph 4.0 mph 52% 0.00 in CLR
22:59 51.1 °F 34.5 °F 29.98 in Calm   6.0 mph 53% 0.00 in CLR
23:14 51.2 °F 35.1 °F 29.98 in North 2.0 mph 9.0 mph 54% 0.00 in CLR
23:29 51.0 °F 34.9 °F 29.98 in North 1.0 mph 12.0 mph 54% 0.00 in CLR
23:44 49.9 °F 35.3 °F 29.99 in NNE 1.0 mph 9.0 mph 57% 0.00 in CLR
23:59 49.9 °F 35.3 °F 29.99 in NNE 3.0 mph 9.0 mph 57% 0.00 in CLR
TarryTown NY Weather
Compliments of Weather Underground - 1.75 mb